Bird City, KS

10:29 AM CDT on August 27, 2016 (GMT -0500)
KHMYKSBI2 | | Change Station

Elev 3524 ft 39.76 °N, 101.60 °W | Updated 20 seconds ago

Rain
Rain
58.8 °F
Feels Like 58.8 °F
N
0.0
Wind Variable Wind from SE
Gusts 4.0 mph

Today
High -- | Low -- °F
--% Chance of Precip.
Yesterday
High -- | Low -- °F
Precip. -- in
Pressure 30.11 in
Visibility 4.0 miles
Clouds Overcast 200 ft
Dew Point 57 °F
Humidity 93%
Rainfall 0.00 in
Snow Depth Not available.
7:10 AM 8:24 PM
Waning Crescent, 23% visible
METAR KSYF 271515Z AUTO 00000KT 4SM RA OVC002 14/13 A3011 RMK AO2 T01350130
Pressure 30.11 in
Visibility 4.0 miles
Clouds Overcast 200 ft
Dew Point 57 °F
Humidity 93%
Rainfall 0.00 in
Snow Depth Not available.
7:10 AM 8:24 PM
Waning Crescent, 23% visible
METAR KSYF 271515Z AUTO 00000KT 4SM RA OVC002 14/13 A3011 RMK AO2 T01350130

10-Day Weather Forecast

Almanac

Astronomy

Aug. 27, 2016 Rise Set
Actual Time
Civil Twilight
Nautical Twilight
Astronomical Twilight
Moon
Length of Visible Light
Length of Day
Tomorrow will be .
, % of the Moon is Illuminated

Today's Extremes

State Highs State Lows

Community

WunderPhotos

Upload Photos

1,935,356 photos uploaded!

WunderBlog® & News

Nearby

Air Quality

  Air Quality AQ Index Pollutant
Not available.

Snow Depth

Station Depth Elevation

Earthquake Activity

City Distance Mag. Time & Date
Minimum magnitude displayed is 2.5.

Coastal Water Temperatures

Place Temperature

Stations

Nearby Weather Stations

Station Location Temp. Windchill Dew Point Humidity Wind Precip. Elev Updated Type
                   

Watches & Warnings

Dense Fog Advisory
Issued: 9:36 AM CDT Aug. 27, 2016 – National Weather Service

... Dense fog advisory now in effect until 11 am MDT /noon CDT/
this morning...

* timing/duration... dense fog expected through the mid morning
hours.

Precautionary/preparedness actions...

A dense fog advisory means visibility will frequently be one
quarter mile or less in fog. If driving... slow down and be
prepared for sudden drops in visibility... especially near
rivers... creeks and low lying areas. Use your headlights on low
beams and drive defensively.